Maersk Essen — V7UQ8 — position and weather

sailwx.info

Track history (hours):
 
Tides and Currents Weather Stations Pressure Air Temp Water Temp Dewpoint Dewpoint Depression Visibility Wind Speed Wind Dir Waves Ship Positions

Maersk Essen

Last reported at 2016-Jul-26 06:26 UTC. Time now 2016-Jul-26 12:10 UTC.
Position N 22°15' E 114°31'.

Length 367 m; draft 11.4 m.

Type: Ship (hazmat cat A). MMSI: 538004007.

Date/timePositionNaut miles runAvg speedWind from/ knotsBaromVisibWave heightAir tempDewpointWater temp
2016-Jul-26 06:26N 22°15' E 114°31'1313.8
2016-Jul-26 05:30N 22°04' E 114°24'3210.7
2016-Jul-26 02:32N 22°09' E 113°50'1313.2
2016-Jul-26 01:33N 22°22' E 113°50'6 6.5
2016-Jul-26 00:33N 22°28' E 113°53'0 0.0
2016-Jul-25 23:31N 22°28' E 113°53'0 0.0
2016-Jul-25 22:31N 22°28' E 113°53'0 0.0
2016-Jul-25 21:25N 22°28' E 113°53'0 0.0
2016-Jul-25 20:31N 22°28' E 113°53'0 0.0
2016-Jul-25 19:31N 22°28' E 113°53'0 0.0
2016-Jul-25 18:31N 22°28' E 113°53'0 0.0
2016-Jul-25 17:31N 22°28' E 113°53'0 0.0
2016-Jul-25 16:31N 22°28' E 113°53'0 0.0
2016-Jul-25 15:19N 22°28' E 113°53'0 0.0
2016-Jul-25 14:31N 22°28' E 113°53'0 0.0
2016-Jul-25 13:31N 22°28' E 113°53'0 0.0
2016-Jul-25 12:31N 22°28' E 113°53'0 0.0
2016-Jul-25 11:31N 22°28' E 113°53'3 2.9
2016-Jul-25 10:33N 22°25' E 113°51'1111.4
2016-Jul-25 09:33N 22°14' E 113°49'38 9.3
2016-Jul-25 05:27N 21°56' E 114°26'23217.9
2016-Jul-24 16:32N 23°31' E 118°15'1717.8
2016-Jul-24 15:33N 23°41' E 118°30'1817.7
2016-Jul-24 14:33N 23°51' E 118°47'1717.1
2016-Jul-24 13:34N 24°02' E 119°01'1817.7
2016-Jul-24 12:33N 24°15' E 119°14'1817.9
2016-Jul-24 11:33N 24°29' E 119°26'1817.9
2016-Jul-24 10:33N 24°42' E 119°39'1717.2
2016-Jul-24 09:33N 24°56' E 119°51'1716.6
2016-Jul-24 08:33N 25°08' E 120°03'2217.0
2016-Jul-24 07:16N 25°25' E 120°19'26916.8
2016-Jul-23 15:16N 29°18' E 122°50'1215.9
2016-Jul-23 14:33N 29°29' E 122°53'1816.1
2016-Jul-23 13:25N 29°46' E 123°00'2016.8
2016-Jul-23 12:12N 30°06' E 123°06'1216.6
2016-Jul-23 11:28N 30°17' E 122°59'1617.8
2016-Jul-23 10:33N 30°27' E 122°44'1715.9
2016-Jul-23 09:31N 30°31' E 122°26'1714.4
2016-Jul-23 08:22N 30°35' E 122°07'26 0.9
2016-Jul-22 04:20N 30°30' E 122°37'5 1.5
2016-Jul-22 01:11N 30°26' E 122°40'5 7.8
2016-Jul-22 00:33N 30°25' E 122°46'1111.0
2016-Jul-21 23:31N 30°19' E 122°57'31 9.5
2016-Jul-21 20:17N 29°50' E 122°48'1113.1
2016-Jul-21 19:29N 29°43' E 122°38'1112.4
2016-Jul-21 18:33N 29°42' E 122°25'1010.2
2016-Jul-21 17:32N 29°48' E 122°15'1212.4
2016-Jul-21 16:33N 29°54' E 122°03'0 0.2
2016-Jul-21 14:16N 29°54' E 122°02'0 0.0
2016-Jul-21 13:22N 29°54' E 122°02'0 0.0
2016-Jul-21 11:11N 29°54' E 122°02'0 0.0
2016-Jul-21 10:22N 29°54' E 122°02'0 0.0
2016-Jul-21 09:29N 29°54' E 122°02'0 0.0
2016-Jul-21 08:16N 29°54' E 122°02'0 0.0
2016-Jul-21 06:28N 29°54' E 122°02'0 0.0
2016-Jul-21 04:31N 29°54' E 122°02'0 0.0
2016-Jul-21 03:16N 29°54' E 122°02'0 0.0
2016-Jul-21 02:29N 29°54' E 122°02'0 0.0
2016-Jul-21 01:28N 29°54' E 122°02'0 0.0
2016-Jul-21 00:28N 29°54' E 122°02'0 0.0
2016-Jul-20 23:22N 29°54' E 122°02'0 0.0
2016-Jul-20 22:29N 29°54' E 122°02'0 0.0
2016-Jul-20 21:28N 29°54' E 122°02'0 0.0
2016-Jul-20 19:28N 29°54' E 122°02'0 0.0
2016-Jul-20 18:16N 29°54' E 122°02'0 0.0
2016-Jul-20 16:28N 29°54' E 122°02'0 0.0
2016-Jul-20 15:10N 29°54' E 122°02'0 0.0
2016-Jul-20 14:23N 29°54' E 122°02'0 0.0
2016-Jul-20 11:10N 29°54' E 122°02'0 0.0
2016-Jul-20 10:16N 29°54' E 122°02'0 0.0
2016-Jul-20 09:28N 29°54' E 122°02'0 0.0
2016-Jul-20 08:22N 29°54' E 122°02'0 0.4
2016-Jul-20 07:33N 29°54' E 122°02'7 7.1
2016-Jul-20 06:33N 29°54' E 122°11'1111.1
2016-Jul-20 05:33N 29°45' E 122°19'1010.0
2016-Jul-20 04:33N 29°42' E 122°30'4 3.7
2016-Jul-20 03:33N 29°42' E 122°34'7 6.9
2016-Jul-20 02:33N 29°46' E 122°40'9 8.0
2016-Jul-20 01:25N 29°53' E 122°47'  
2016-Jul-17 07:22N 34°53' E 139°23'1815.2
2016-Jul-17 06:09N 35°04' E 139°41'1811.6
2016-Jul-17 04:33N 35°22' E 139°42'2 1.8
2016-Jul-17 03:31N 35°24' E 139°41'0 0.0
2016-Jul-17 02:31N 35°24' E 139°41'0 0.0
2016-Jul-17 01:31N 35°24' E 139°41'0 0.0
2016-Jul-17 00:31N 35°24' E 139°41'0 0.0
2016-Jul-16 23:31N 35°24' E 139°41'2 1.7
2016-Jul-16 22:33N 35°23' E 139°42'1010.1
2016-Jul-16 21:34N 35°14' E 139°47'1111.4
2016-Jul-16 20:33N 35°02' E 139°44'1110.8
2016-Jul-16 19:32N 34°51' E 139°47'1413.7
2016-Jul-16 18:33N 34°55' E 140°02'1715.0
2016-Jul-16 17:24N 35°04' E 140°21'1315.2
2016-Jul-16 16:33N 35°09' E 140°35'1615.6
2016-Jul-16 15:34N 35°17' E 140°52'  
Track history (hours):
 
Tides and Currents Weather Stations Pressure Air Temp Water Temp Dewpoint Dewpoint Depression Visibility Wind Speed Wind Dir Waves Ship Positions

Maersk Essen

Last reported at 2016-Jul-26 06:26 UTC. Time now 2016-Jul-26 12:10 UTC.
Position N 22°15' E 114°31'.

Length 367 m; draft 11.4 m.

Type: Ship (hazmat cat A). MMSI: 538004007.

Date/timePositionNaut miles runAvg speedWind from/ knotsBaromVisibWave heightAir tempDewpointWater temp
2016-Jul-26 06:26N 22°15' E 114°31'1313.8
2016-Jul-26 05:30N 22°04' E 114°24'3210.7
2016-Jul-26 02:32N 22°09' E 113°50'1313.2
2016-Jul-26 01:33N 22°22' E 113°50'6 6.5
2016-Jul-26 00:33N 22°28' E 113°53'0 0.0
2016-Jul-25 23:31N 22°28' E 113°53'0 0.0
2016-Jul-25 22:31N 22°28' E 113°53'0 0.0
2016-Jul-25 21:25N 22°28' E 113°53'0 0.0
2016-Jul-25 20:31N 22°28' E 113°53'0 0.0
2016-Jul-25 19:31N 22°28' E 113°53'0 0.0
2016-Jul-25 18:31N 22°28' E 113°53'0 0.0
2016-Jul-25 17:31N 22°28' E 113°53'0 0.0
2016-Jul-25 16:31N 22°28' E 113°53'0 0.0
2016-Jul-25 15:19N 22°28' E 113°53'0 0.0
2016-Jul-25 14:31N 22°28' E 113°53'0 0.0
2016-Jul-25 13:31N 22°28' E 113°53'0 0.0
2016-Jul-25 12:31N 22°28' E 113°53'0 0.0
2016-Jul-25 11:31N 22°28' E 113°53'3 2.9
2016-Jul-25 10:33N 22°25' E 113°51'1111.4
2016-Jul-25 09:33N 22°14' E 113°49'38 9.3
2016-Jul-25 05:27N 21°56' E 114°26'23217.9
2016-Jul-24 16:32N 23°31' E 118°15'1717.8
2016-Jul-24 15:33N 23°41' E 118°30'1817.7
2016-Jul-24 14:33N 23°51' E 118°47'1717.1
2016-Jul-24 13:34N 24°02' E 119°01'1817.7
2016-Jul-24 12:33N 24°15' E 119°14'1817.9
2016-Jul-24 11:33N 24°29' E 119°26'1817.9
2016-Jul-24 10:33N 24°42' E 119°39'1717.2
2016-Jul-24 09:33N 24°56' E 119°51'1716.6
2016-Jul-24 08:33N 25°08' E 120°03'2217.0
2016-Jul-24 07:16N 25°25' E 120°19'26916.8
2016-Jul-23 15:16N 29°18' E 122°50'1215.9
2016-Jul-23 14:33N 29°29' E 122°53'1816.1
2016-Jul-23 13:25N 29°46' E 123°00'2016.8
2016-Jul-23 12:12N 30°06' E 123°06'1216.6
2016-Jul-23 11:28N 30°17' E 122°59'1617.8
2016-Jul-23 10:33N 30°27' E 122°44'1715.9
2016-Jul-23 09:31N 30°31' E 122°26'1714.4
2016-Jul-23 08:22N 30°35' E 122°07'26 0.9
2016-Jul-22 04:20N 30°30' E 122°37'5 1.5
2016-Jul-22 01:11N 30°26' E 122°40'5 7.8
2016-Jul-22 00:33N 30°25' E 122°46'1111.0
2016-Jul-21 23:31N 30°19' E 122°57'31 9.5
2016-Jul-21 20:17N 29°50' E 122°48'1113.1
2016-Jul-21 19:29N 29°43' E 122°38'1112.4
2016-Jul-21 18:33N 29°42' E 122°25'1010.2
2016-Jul-21 17:32N 29°48' E 122°15'1212.4
2016-Jul-21 16:33N 29°54' E 122°03'0 0.2
2016-Jul-21 14:16N 29°54' E 122°02'0 0.0
2016-Jul-21 13:22N 29°54' E 122°02'0 0.0
2016-Jul-21 11:11N 29°54' E 122°02'0 0.0
2016-Jul-21 10:22N 29°54' E 122°02'0 0.0
2016-Jul-21 09:29N 29°54' E 122°02'0 0.0
2016-Jul-21 08:16N 29°54' E 122°02'0 0.0
2016-Jul-21 06:28N 29°54' E 122°02'0 0.0
2016-Jul-21 04:31N 29°54' E 122°02'0 0.0
2016-Jul-21 03:16N 29°54' E 122°02'0 0.0
2016-Jul-21 02:29N 29°54' E 122°02'0 0.0
2016-Jul-21 01:28N 29°54' E 122°02'0 0.0
2016-Jul-21 00:28N 29°54' E 122°02'0 0.0
2016-Jul-20 23:22N 29°54' E 122°02'0 0.0
2016-Jul-20 22:29N 29°54' E 122°02'0 0.0
2016-Jul-20 21:28N 29°54' E 122°02'0 0.0
2016-Jul-20 19:28N 29°54' E 122°02'0 0.0
2016-Jul-20 18:16N 29°54' E 122°02'0 0.0
2016-Jul-20 16:28N 29°54' E 122°02'0 0.0
2016-Jul-20 15:10N 29°54' E 122°02'0 0.0
2016-Jul-20 14:23N 29°54' E 122°02'0 0.0
2016-Jul-20 11:10N 29°54' E 122°02'0 0.0
2016-Jul-20 10:16N 29°54' E 122°02'0 0.0
2016-Jul-20 09:28N 29°54' E 122°02'0 0.0
2016-Jul-20 08:22N 29°54' E 122°02'0 0.4
2016-Jul-20 07:33N 29°54' E 122°02'7 7.1
2016-Jul-20 06:33N 29°54' E 122°11'1111.1
2016-Jul-20 05:33N 29°45' E 122°19'1010.0
2016-Jul-20 04:33N 29°42' E 122°30'4 3.7
2016-Jul-20 03:33N 29°42' E 122°34'7 6.9
2016-Jul-20 02:33N 29°46' E 122°40'9 8.0
2016-Jul-20 01:25N 29°53' E 122°47'  
2016-Jul-17 07:22N 34°53' E 139°23'1815.2
2016-Jul-17 06:09N 35°04' E 139°41'1811.6
2016-Jul-17 04:33N 35°22' E 139°42'2 1.8
2016-Jul-17 03:31N 35°24' E 139°41'0 0.0
2016-Jul-17 02:31N 35°24' E 139°41'0 0.0
2016-Jul-17 01:31N 35°24' E 139°41'0 0.0
2016-Jul-17 00:31N 35°24' E 139°41'0 0.0
2016-Jul-16 23:31N 35°24' E 139°41'2 1.7
2016-Jul-16 22:33N 35°23' E 139°42'1010.1
2016-Jul-16 21:34N 35°14' E 139°47'1111.4
2016-Jul-16 20:33N 35°02' E 139°44'1110.8
2016-Jul-16 19:32N 34°51' E 139°47'1413.7
2016-Jul-16 18:33N 34°55' E 140°02'1715.0
2016-Jul-16 17:24N 35°04' E 140°21'1315.2
2016-Jul-16 16:33N 35°09' E 140°35'1615.6
2016-Jul-16 15:34N 35°17' E 140°52'  

Dump ship's entire track history